Strona główna
METAR-TAF:

METAR-TAF

Lotnisko :

Port lotniczy Lampang

Lampang, Tajlandia

Szerokość geograficzna: 18-17N, Długość geograficzna: 099-31E, wysokość: 241 m

Aktualna obserwacja pogody

Raport powstał 40 minut temu, godzina 07:00 UTC
Wiatr 3 kt z kierunków zmiennych
Temperatura 31°C
Wilgotność 38%
Ciśnienie 1018 hPa
Widzialność 10 km lub więcej
Mało chmury na wysokości 3500 ft

METAR: VTCL 220700Z VRB03KT 9999 FEW035 31/15 Q1018 NOSIG

czas: 14:40 (07:40 UTC)

Prognoza

Raport powstał 2 godziny i 40 minut temu, godzina 05:00 UTC
Prognoza ważna od 22 godzina 06 UTC do 23 godzina 06 UTC
Wiatr 5 kt od wschód
Widzialność: 9000 m

TAF: VTCL 220500Z 2206/2306 08005KT 9000 NSC

Obserwacja i prognoza pogody dla ponad 4000 lotnisk (raport METAR i TAF).

Dostępne stacje oznaczono żółtymi i czerwonymi punktami na mapie.

Najedź kursorem aby zobaczyć nazwę stacji.

Kliknij aby zobaczyć obserwacje i prognozy pogody.

Aby zmienić mapę: kliknij na zielony przycisk z czarnym krzyżykiem, aby powiększyć; na zielony przycisk z myślnikiem, aby pomniejszyć; na zielone strzałki, aby przejść do map sąsiednich.


METAR-TAF: